createdAt,value
2023-03-06T00:01:33.259Z,8.73
2023-03-06T00:04:01.531Z,9.20
2023-03-06T00:06:29.766Z,10.50
2023-03-06T00:08:57.951Z,10.60
2023-03-06T00:11:26.198Z,10.57
2023-03-06T00:13:54.407Z,9.53
2023-03-06T00:16:24.955Z,10.07
2023-03-06T00:18:53.440Z,10.07
2023-03-06T00:21:21.720Z,9.60
2023-03-06T00:23:49.945Z,10.00
2023-03-06T00:26:18.124Z,9.90
2023-03-06T00:28:46.617Z,9.80
2023-03-06T00:31:14.883Z,9.70
2023-03-06T00:33:44.596Z,9.07
2023-03-06T00:36:12.816Z,9.53
2023-03-06T00:38:42.746Z,8.63
2023-03-06T00:41:13.321Z,9.57
2023-03-06T00:43:41.746Z,9.60
2023-03-06T00:46:10.450Z,9.97
2023-03-06T00:48:39.610Z,10.83
2023-03-06T00:51:10.490Z,10.03
2023-03-06T00:53:40.248Z,10.00
2023-03-06T00:56:09.478Z,9.73
2023-03-06T00:58:38.280Z,9.90
2023-03-06T01:01:07.100Z,10.13
2023-03-06T01:03:35.544Z,10.20
2023-03-06T01:06:04.123Z,10.87
2023-03-06T01:08:33.753Z,11.03
2023-03-06T01:11:01.990Z,10.73
2023-03-06T01:13:30.264Z,10.43
2023-03-06T01:16:08.712Z,9.60
2023-03-06T01:18:37.330Z,10.73
2023-03-06T01:21:06.624Z,9.90
2023-03-06T01:23:37.638Z,10.00
2023-03-06T01:26:06.760Z,10.93
2023-03-06T01:28:37.072Z,10.83
2023-03-06T01:31:06.845Z,11.07
2023-03-06T01:33:35.412Z,10.83
2023-03-06T01:36:05.709Z,10.57
2023-03-06T01:38:34.110Z,11.00
2023-03-06T01:41:04.799Z,10.80
2023-03-06T01:43:35.827Z,11.57
2023-03-06T01:46:31.542Z,11.80
2023-03-06T01:49:04.677Z,10.90
2023-03-06T01:51:38.849Z,11.73
2023-03-06T01:54:13.603Z,11.67
2023-03-06T01:56:46.948Z,12.33
2023-03-06T01:59:16.156Z,11.80
2023-03-06T02:01:45.438Z,12.27
2023-03-06T02:04:16.031Z,12.40
2023-03-06T02:06:45.253Z,11.97
2023-03-06T02:09:14.622Z,12.00
2023-03-06T02:11:45.435Z,12.27
2023-03-06T02:14:17.564Z,12.30
2023-03-06T02:16:45.963Z,11.83
2023-03-06T02:19:34.230Z,13.03
2023-03-06T02:22:02.704Z,12.23
2023-03-06T02:24:38.587Z,11.93
2023-03-06T02:27:11.338Z,10.63
2023-03-06T02:29:40.292Z,12.30
2023-03-06T02:32:08.822Z,12.03
2023-03-06T02:34:59.586Z,11.83
2023-03-06T02:37:30.389Z,11.63
2023-03-06T02:40:12.249Z,11.17
2023-03-06T02:42:47.780Z,11.07
2023-03-06T02:45:23.313Z,11.17
2023-03-06T02:47:51.518Z,10.97
2023-03-06T02:50:19.936Z,11.20
2023-03-06T02:52:49.332Z,11.17
2023-03-06T02:55:17.708Z,12.77
2023-03-06T02:57:47.245Z,11.60
2023-03-06T03:00:17.225Z,12.00
2023-03-06T03:03:09.667Z,11.90
2023-03-06T03:05:38.015Z,12.93
2023-03-06T03:08:14.064Z,11.30
2023-03-06T03:10:42.344Z,11.97
2023-03-06T03:13:13.148Z,11.40
2023-03-06T03:15:44.324Z,11.93
2023-03-06T03:18:13.145Z,11.63
2023-03-06T03:20:43.993Z,12.20
2023-03-06T03:23:13.372Z,12.10
2023-03-06T03:25:41.536Z,11.93
2023-03-06T03:28:11.088Z,12.07
2023-03-06T03:30:42.610Z,11.83
2023-03-06T03:33:11.703Z,12.30
2023-03-06T03:35:40.749Z,12.87
2023-03-06T03:38:08.976Z,12.93
2023-03-06T03:40:37.313Z,11.43
2023-03-06T03:43:05.550Z,12.43
2023-03-06T03:45:35.728Z,12.40
2023-03-06T03:48:04.476Z,12.50
2023-03-06T03:50:33.967Z,13.27
2023-03-06T03:53:02.895Z,12.23
2023-03-06T03:55:31.832Z,13.23
2023-03-06T03:58:00.530Z,13.07
2023-03-06T04:00:29.432Z,12.53
2023-03-06T04:03:09.678Z,13.77
2023-03-06T04:05:42.043Z,12.50
2023-03-06T04:08:11.495Z,12.93
2023-03-06T04:10:43.283Z,13.20
2023-03-06T04:13:13.336Z,13.03
2023-03-06T04:15:44.515Z,13.17
2023-03-06T04:18:16.347Z,13.23
2023-03-06T04:20:45.274Z,12.77
2023-03-06T04:23:14.014Z,12.47
2023-03-06T04:25:42.783Z,12.53
2023-03-06T04:28:13.771Z,12.73
2023-03-06T04:30:42.282Z,13.60
2023-03-06T04:33:10.744Z,13.07
2023-03-06T04:35:40.461Z,14.17
2023-03-06T04:38:14.812Z,12.43
2023-03-06T04:40:45.015Z,12.30
2023-03-06T04:43:13.656Z,12.47
2023-03-06T04:45:41.987Z,13.03
2023-03-06T04:48:11.665Z,12.17
2023-03-06T04:50:41.804Z,11.23
2023-03-06T04:53:11.031Z,11.30
2023-03-06T04:55:39.228Z,10.43
2023-03-06T04:58:07.462Z,11.97
2023-03-06T05:00:35.872Z,12.33
2023-03-06T05:03:04.153Z,11.57
2023-03-06T05:05:36.426Z,12.10
2023-03-06T05:08:06.712Z,12.93
2023-03-06T05:10:34.998Z,12.73
2023-03-06T05:13:03.223Z,12.93
2023-03-06T05:15:31.513Z,12.03
2023-03-06T05:17:59.836Z,13.40
2023-03-06T05:20:28.653Z,12.27
2023-03-06T05:22:56.939Z,11.80
2023-03-06T05:25:26.518Z,12.27
2023-03-06T05:27:54.748Z,12.47
2023-03-06T05:30:23.374Z,12.80
2023-03-06T05:32:51.960Z,12.77
2023-03-06T05:35:22.945Z,12.57
2023-03-06T05:37:51.598Z,12.67
2023-03-06T05:40:20.488Z,12.60
2023-03-06T05:42:50.082Z,12.97
2023-03-06T05:45:18.739Z,12.63
2023-03-06T05:47:47.322Z,12.03
2023-03-06T05:50:16.724Z,11.43
2023-03-06T05:52:47.605Z,11.83
2023-03-06T05:55:16.531Z,12.00
2023-03-06T05:57:44.741Z,12.20
2023-03-06T06:00:16.242Z,12.53
2023-03-06T06:02:46.172Z,12.23
2023-03-06T06:05:15.254Z,13.07
2023-03-06T06:07:43.987Z,12.60
2023-03-06T06:10:13.724Z,12.47
2023-03-06T06:12:42.051Z,13.20
2023-03-06T06:15:11.293Z,12.63
2023-03-06T06:17:40.833Z,13.23
2023-03-06T06:20:11.113Z,12.77
2023-03-06T06:22:39.359Z,12.67
2023-03-06T06:25:09.155Z,14.13
2023-03-06T06:27:37.403Z,12.40
2023-03-06T06:30:08.363Z,13.20
2023-03-06T06:32:37.787Z,13.03
2023-03-06T06:35:08.899Z,12.67
2023-03-06T06:37:37.119Z,12.30
2023-03-06T06:40:06.722Z,12.67
2023-03-06T06:42:39.894Z,13.90
2023-03-06T06:45:10.451Z,11.30
2023-03-06T06:47:42.114Z,13.30
2023-03-06T06:50:15.001Z,13.70
2023-03-06T06:52:43.546Z,12.43
2023-03-06T06:55:13.491Z,11.90
2023-03-06T06:57:42.600Z,13.40
2023-03-06T07:00:14.752Z,12.57
2023-03-06T07:02:43.057Z,13.23
2023-03-06T07:05:13.682Z,12.67
2023-03-06T07:07:51.058Z,12.70
2023-03-06T07:10:20.998Z,12.93
2023-03-06T07:12:49.363Z,14.83
2023-03-06T07:15:19.064Z,13.17
2023-03-06T07:17:49.922Z,12.83
2023-03-06T07:20:21.055Z,12.13
2023-03-06T07:22:51.648Z,14.10
2023-03-06T07:25:21.084Z,12.80
2023-03-06T07:27:53.705Z,12.93
2023-03-06T07:30:23.246Z,12.60
2023-03-06T07:32:55.266Z,12.17
2023-03-06T07:35:26.265Z,12.57
2023-03-06T07:37:55.065Z,12.70
2023-03-06T07:40:24.658Z,11.77
2023-03-06T07:42:57.737Z,12.60
2023-03-06T07:45:37.849Z,27.93
2023-03-06T07:48:06.851Z,13.57
2023-03-06T07:50:36.415Z,12.47
2023-03-06T07:53:04.651Z,12.37
2023-03-06T07:55:32.887Z,12.97
2023-03-06T07:58:01.119Z,11.60
2023-03-06T08:00:29.577Z,10.90
2023-03-06T08:02:57.896Z,11.13
2023-03-06T08:05:26.109Z,10.67
2023-03-06T08:07:55.775Z,10.30
2023-03-06T08:10:24.156Z,11.17
2023-03-06T08:12:52.412Z,11.80
2023-03-06T08:15:20.816Z,13.10
2023-03-06T08:17:49.126Z,11.83
2023-03-06T08:20:18.563Z,11.10
2023-03-06T08:22:48.980Z,11.17
2023-03-06T08:25:18.786Z,10.57
2023-03-06T08:27:47.815Z,9.63
2023-03-06T08:30:16.786Z,10.43
2023-03-06T08:32:45.829Z,10.27
2023-03-06T08:35:14.559Z,10.23
2023-03-06T08:37:42.821Z,10.37
2023-03-06T08:40:13.724Z,10.00
2023-03-06T08:42:44.124Z,9.40
2023-03-06T08:45:12.850Z,9.37
2023-03-06T08:47:41.121Z,10.10
2023-03-06T08:50:11.393Z,8.90
2023-03-06T08:52:39.741Z,11.10
2023-03-06T08:55:09.303Z,9.67
2023-03-06T08:57:37.730Z,10.00
2023-03-06T09:00:10.707Z,9.57
2023-03-06T09:02:38.987Z,9.20
2023-03-06T09:05:09.320Z,8.70
2023-03-06T09:07:37.657Z,10.03
2023-03-06T09:10:06.857Z,8.67
2023-03-06T09:12:47.511Z,10.20
2023-03-06T09:15:19.337Z,9.70
2023-03-06T09:17:48.453Z,9.00
2023-03-06T09:20:16.836Z,8.70
2023-03-06T09:22:45.652Z,8.50
2023-03-06T09:25:17.651Z,8.00
2023-03-06T09:27:45.868Z,7.97
2023-03-06T09:30:15.702Z,7.97
2023-03-06T09:32:45.489Z,8.33
2023-03-06T09:35:14.525Z,7.63
2023-03-06T09:37:42.815Z,8.30
2023-03-06T09:40:20.661Z,8.30
2023-03-06T09:42:48.932Z,7.70
2023-03-06T09:45:17.217Z,9.50
2023-03-06T09:47:54.133Z,7.97
2023-03-06T09:50:39.711Z,8.70
2023-03-06T09:53:41.493Z,8.37
2023-03-06T09:56:17.134Z,7.90
2023-03-06T09:58:49.169Z,9.03
2023-03-06T10:01:24.403Z,10.17
2023-03-06T10:03:59.624Z,10.00
2023-03-06T10:06:32.064Z,10.47
2023-03-06T10:09:06.625Z,9.07
2023-03-06T10:11:40.782Z,9.07
2023-03-06T10:14:19.123Z,9.00
2023-03-06T10:16:47.437Z,9.87
2023-03-06T10:19:19.397Z,9.57
2023-03-06T10:21:57.491Z,9.63
2023-03-06T10:24:40.906Z,9.37
2023-03-06T10:27:23.502Z,9.80
2023-03-06T10:30:04.178Z,9.30
2023-03-06T10:32:48.598Z,9.60
2023-03-06T10:35:21.970Z,10.47
2023-03-06T10:37:50.550Z,10.63
2023-03-06T10:40:22.934Z,11.13
2023-03-06T10:43:01.635Z,10.33
2023-03-06T10:45:49.916Z,11.03
2023-03-06T10:48:22.504Z,9.27
2023-03-06T10:50:53.233Z,10.20
2023-03-06T10:53:26.587Z,10.07
2023-03-06T10:55:58.797Z,10.30
2023-03-06T10:58:30.031Z,10.10
2023-03-06T11:01:08.589Z,10.50
2023-03-06T11:03:37.608Z,10.00
2023-03-06T11:06:13.738Z,11.37
2023-03-06T11:08:44.414Z,11.70
2023-03-06T11:11:25.114Z,12.10
2023-03-06T11:14:00.630Z,11.30
2023-03-06T11:16:31.457Z,9.87
2023-03-06T11:19:01.604Z,9.97
2023-03-06T11:21:33.124Z,10.00
2023-03-06T11:24:06.514Z,9.80
2023-03-06T11:26:45.545Z,10.37
2023-03-06T11:29:38.863Z,9.20
2023-03-06T11:32:13.798Z,7.80
2023-03-06T11:34:50.552Z,9.43
2023-03-06T11:37:34.906Z,10.00
2023-03-06T11:40:14.696Z,9.87
2023-03-06T11:42:51.132Z,9.33
2023-03-06T11:45:33.681Z,10.37
2023-03-06T11:48:20.168Z,9.17
2023-03-06T11:50:50.733Z,10.63
2023-03-06T11:53:23.806Z,9.87
2023-03-06T11:56:01.277Z,10.40
2023-03-06T11:58:46.718Z,8.77
2023-03-06T12:01:24.497Z,9.93
2023-03-06T12:04:23.924Z,10.00
2023-03-06T12:07:02.074Z,9.70
2023-03-06T12:09:45.268Z,10.53
2023-03-06T12:12:26.650Z,10.87
2023-03-06T12:15:19.329Z,10.37
2023-03-06T12:18:02.277Z,10.40
2023-03-06T12:20:52.772Z,11.30
2023-03-06T12:23:39.439Z,10.90
2023-03-06T12:26:29.590Z,11.40
2023-03-06T12:29:15.716Z,9.53
2023-03-06T12:31:57.115Z,11.13
2023-03-06T12:34:45.129Z,10.60
2023-03-06T12:37:23.513Z,10.00
2023-03-06T12:40:20.002Z,9.83
2023-03-06T12:43:21.680Z,10.53
2023-03-06T12:45:52.770Z,11.17
2023-03-06T12:48:27.041Z,10.50
2023-03-06T12:51:22.219Z,11.17
2023-03-06T12:53:52.224Z,10.07
2023-03-06T12:56:21.915Z,12.03
2023-03-06T12:58:54.257Z,9.77
2023-03-06T13:01:59.963Z,10.77
2023-03-06T13:05:07.436Z,9.53
2023-03-06T13:07:53.756Z,10.73
2023-03-06T13:10:27.115Z,9.70
2023-03-06T13:12:57.152Z,10.03
2023-03-06T13:15:40.291Z,9.83
2023-03-06T13:19:02.655Z,9.13
2023-03-06T13:22:04.155Z,10.20
2023-03-06T13:24:34.885Z,9.80
2023-03-06T13:27:07.244Z,9.87
2023-03-06T13:30:24.382Z,10.30
2023-03-06T13:32:56.153Z,10.13
2023-03-06T13:35:53.592Z,11.07
2023-03-06T13:38:57.104Z,10.57
2023-03-06T13:41:43.052Z,11.10
2023-03-06T13:44:43.445Z,11.60
2023-03-06T13:48:06.491Z,11.53
2023-03-06T13:50:43.207Z,11.77
2023-03-06T13:53:48.426Z,11.40
2023-03-06T13:56:56.701Z,11.77
2023-03-06T14:00:09.657Z,11.07
2023-03-06T14:02:55.973Z,11.93
2023-03-06T14:05:24.837Z,11.07
2023-03-06T14:08:11.144Z,10.67
2023-03-06T14:10:40.324Z,10.60
2023-03-06T14:13:17.184Z,11.00
2023-03-06T14:15:48.536Z,11.33
2023-03-06T14:18:26.258Z,11.73
2023-03-06T14:20:59.738Z,11.37
2023-03-06T14:23:35.318Z,11.13
2023-03-06T14:26:15.651Z,11.37
2023-03-06T14:28:46.748Z,11.00
2023-03-06T14:31:20.329Z,12.43
2023-03-06T14:33:53.668Z,15.17
2023-03-06T14:36:25.592Z,14.27
2023-03-06T14:38:58.368Z,12.03
2023-03-06T14:41:29.069Z,11.23
2023-03-06T14:44:11.134Z,14.43
2023-03-06T14:46:39.479Z,12.50
2023-03-06T14:49:09.059Z,12.37
2023-03-06T14:51:43.010Z,15.13
2023-03-06T14:54:19.467Z,11.50
2023-03-06T14:56:50.008Z,13.67
2023-03-06T14:59:21.963Z,15.07
2023-03-06T15:01:53.135Z,15.00
2023-03-06T15:04:29.270Z,15.47
2023-03-06T15:06:58.943Z,14.13
2023-03-06T15:09:31.556Z,16.40
2023-03-06T15:12:02.350Z,11.30
2023-03-06T15:14:38.323Z,13.83
2023-03-06T15:17:29.174Z,12.57
2023-03-06T15:19:59.615Z,12.47
2023-03-06T15:22:32.198Z,11.90
2023-03-06T15:25:23.310Z,10.73
2023-03-06T15:27:54.603Z,10.37
2023-03-06T15:30:29.823Z,10.10
2023-03-06T15:33:20.762Z,10.43
2023-03-06T15:35:57.008Z,10.33
2023-03-06T15:38:33.769Z,10.30
2023-03-06T15:41:05.056Z,11.10
2023-03-06T15:43:37.895Z,10.40
2023-03-06T15:46:08.100Z,10.03
2023-03-06T15:48:36.479Z,10.27
2023-03-06T15:51:05.725Z,10.43
2023-03-06T15:53:34.138Z,10.10
2023-03-06T15:56:03.847Z,11.23
2023-03-06T15:58:34.743Z,10.33
2023-03-06T16:01:03.733Z,10.03
2023-03-06T16:03:32.127Z,9.43
2023-03-06T16:06:00.385Z,9.50
2023-03-06T16:08:28.882Z,9.80
2023-03-06T16:10:57.196Z,9.77
2023-03-06T16:13:29.217Z,11.47
2023-03-06T16:15:57.552Z,10.63
2023-03-06T16:18:25.818Z,9.50
2023-03-06T16:20:53.992Z,9.87
2023-03-06T16:23:22.725Z,9.80
2023-03-06T16:25:50.953Z,10.40
2023-03-06T16:28:19.277Z,10.93
2023-03-06T16:30:48.864Z,10.87
2023-03-06T16:33:17.220Z,10.13
2023-03-06T16:35:47.241Z,10.67
2023-03-06T16:38:16.718Z,10.80
2023-03-06T16:40:45.166Z,11.33
2023-03-06T16:43:16.087Z,10.30
2023-03-06T16:45:44.760Z,10.37
2023-03-06T16:48:20.520Z,10.10
2023-03-06T16:50:49.044Z,10.23
2023-03-06T16:53:17.291Z,12.43
2023-03-06T16:55:46.483Z,10.13
2023-03-06T16:58:14.827Z,9.90
2023-03-06T17:00:43.115Z,11.13
2023-03-06T17:03:11.365Z,11.10
2023-03-06T17:05:44.153Z,10.23
2023-03-06T17:08:12.500Z,10.30
2023-03-06T17:10:42.558Z,11.97
2023-03-06T17:13:10.824Z,11.90
2023-03-06T17:15:39.156Z,14.40
2023-03-06T17:18:07.599Z,15.23
2023-03-06T17:20:36.157Z,14.10
2023-03-06T17:23:05.752Z,11.67
2023-03-06T17:25:34.947Z,10.53
2023-03-06T17:28:03.251Z,9.57
2023-03-06T17:30:31.751Z,12.07
2023-03-06T17:33:00.708Z,10.23
2023-03-06T17:35:29.103Z,9.60
2023-03-06T17:37:58.764Z,10.97
2023-03-06T17:40:28.409Z,10.33
2023-03-06T17:42:56.641Z,9.83
2023-03-06T17:45:24.927Z,10.50
2023-03-06T17:47:56.280Z,11.23
2023-03-06T17:50:24.594Z,10.07
2023-03-06T17:52:52.836Z,10.47
2023-03-06T17:55:21.365Z,10.80
2023-03-06T17:57:52.978Z,10.40
2023-03-06T18:00:22.982Z,11.40
2023-03-06T18:02:51.303Z,10.87
2023-03-06T18:05:20.823Z,10.50
2023-03-06T18:07:49.135Z,10.57
2023-03-06T18:10:17.826Z,11.00
2023-03-06T18:12:46.189Z,11.37
2023-03-06T18:15:16.242Z,10.87
2023-03-06T18:17:44.540Z,10.10
2023-03-06T18:20:13.693Z,11.20
2023-03-06T18:22:42.078Z,10.73
2023-03-06T18:25:11.280Z,10.80
2023-03-06T18:27:39.602Z,10.67
2023-03-06T18:30:09.597Z,10.30
2023-03-06T18:32:39.276Z,11.03
2023-03-06T18:35:09.446Z,11.07
2023-03-06T18:37:37.777Z,10.07
2023-03-06T18:40:07.591Z,10.03
2023-03-06T18:42:35.863Z,11.07
2023-03-06T18:45:06.407Z,10.97
2023-03-06T18:47:34.758Z,10.33
2023-03-06T18:50:04.734Z,10.83
2023-03-06T18:52:34.157Z,11.43
2023-03-06T18:55:02.575Z,12.10
2023-03-06T18:57:30.942Z,11.70
2023-03-06T18:59:59.246Z,10.93
2023-03-06T19:02:27.569Z,10.77
2023-03-06T19:04:56.260Z,10.83
2023-03-06T19:07:26.592Z,10.13
2023-03-06T19:09:55.292Z,11.30
2023-03-06T19:12:23.641Z,11.10
2023-03-06T19:14:52.148Z,11.00
2023-03-06T19:17:20.476Z,11.40
2023-03-06T19:19:51.951Z,10.83
2023-03-06T19:22:20.429Z,10.70
2023-03-06T19:24:50.533Z,11.63
2023-03-06T19:27:18.820Z,11.03
2023-03-06T19:29:47.175Z,11.17
2023-03-06T19:32:15.990Z,11.10
2023-03-06T19:34:44.368Z,10.37
2023-03-06T19:37:13.098Z,11.50
2023-03-06T19:39:41.362Z,10.30
2023-03-06T19:42:13.727Z,10.97
2023-03-06T19:44:42.165Z,11.27
2023-03-06T19:47:10.468Z,10.17
2023-03-06T19:49:39.121Z,10.93
2023-03-06T19:52:07.719Z,11.53
2023-03-06T19:54:36.017Z,11.37
2023-03-06T19:57:04.432Z,10.77
2023-03-06T19:59:34.134Z,10.57
2023-03-06T20:02:02.416Z,11.63
2023-03-06T20:04:33.206Z,11.07
2023-03-06T20:07:01.725Z,12.93
2023-03-06T20:09:32.310Z,11.67
2023-03-06T20:12:00.722Z,11.53
2023-03-06T20:14:29.362Z,10.97
2023-03-06T20:16:59.029Z,11.97
2023-03-06T20:19:27.623Z,11.60
2023-03-06T20:21:56.118Z,13.50
2023-03-06T20:24:26.012Z,12.03
2023-03-06T20:26:57.534Z,12.33
2023-03-06T20:29:28.261Z,13.70
2023-03-06T20:31:58.860Z,12.93
2023-03-06T20:34:28.920Z,11.50
2023-03-06T20:36:57.921Z,11.47
2023-03-06T20:39:26.332Z,11.83
2023-03-06T20:41:54.816Z,12.80
2023-03-06T20:44:23.176Z,12.33
2023-03-06T20:46:51.984Z,12.53
2023-03-06T20:49:22.717Z,12.03
2023-03-06T20:51:51.286Z,12.03
2023-03-06T20:54:19.618Z,12.13
2023-03-06T20:56:50.145Z,12.50
2023-03-06T20:59:18.498Z,11.67
2023-03-06T21:04:44.366Z,12.13
2023-03-06T21:07:13.016Z,11.83
2023-03-06T21:09:41.623Z,12.20
2023-03-06T21:12:09.907Z,11.50
2023-03-06T21:14:38.216Z,11.47
2023-03-06T21:17:06.460Z,11.53
2023-03-06T21:19:34.732Z,11.93
2023-03-06T21:22:04.813Z,11.60
2023-03-06T21:24:33.091Z,11.87
2023-03-06T21:27:01.333Z,11.77
2023-03-06T21:29:29.657Z,12.63
2023-03-06T21:31:58.082Z,13.17
2023-03-06T21:34:26.459Z,13.40
2023-03-06T21:36:54.675Z,12.83
2023-03-06T21:39:24.369Z,12.30
2023-03-06T21:41:52.999Z,12.33
2023-03-06T21:44:22.908Z,12.10
2023-03-06T21:46:53.982Z,11.97
2023-03-06T21:49:25.982Z,12.60
2023-03-06T21:51:54.923Z,12.33
2023-03-06T21:54:24.777Z,12.30
2023-03-06T21:56:53.072Z,12.33
2023-03-06T21:59:21.336Z,11.37
2023-03-06T22:01:49.603Z,11.00
2023-03-06T22:04:17.899Z,12.07
2023-03-06T22:06:46.223Z,11.37
2023-03-06T22:09:16.207Z,11.60
2023-03-06T22:11:45.792Z,11.23
2023-03-06T22:14:14.860Z,11.17
2023-03-06T22:16:43.326Z,11.27
2023-03-06T22:19:11.600Z,11.50
2023-03-06T22:21:40.025Z,11.33
2023-03-06T22:24:08.642Z,12.10
2023-03-06T22:26:36.835Z,10.47
2023-03-06T22:29:06.419Z,11.33
2023-03-06T22:31:34.728Z,11.67
2023-03-06T22:34:02.932Z,10.57
2023-03-06T22:36:32.312Z,11.23
2023-03-06T22:39:05.210Z,10.67
2023-03-06T22:41:33.575Z,10.67
2023-03-06T22:44:03.694Z,10.47
2023-03-06T22:46:33.922Z,9.37
2023-03-06T22:49:03.297Z,10.03
2023-03-06T22:51:31.883Z,9.80
2023-03-06T22:54:00.242Z,10.83
2023-03-06T22:56:28.593Z,10.47
2023-03-06T22:58:57.719Z,10.23
2023-03-06T23:01:28.973Z,9.40
2023-03-06T23:04:01.049Z,10.43
2023-03-06T23:06:32.373Z,9.90
2023-03-06T23:09:07.649Z,10.03
2023-03-06T23:11:54.539Z,10.93
2023-03-06T23:14:42.751Z,9.70
2023-03-06T23:17:29.830Z,9.40
2023-03-06T23:20:18.250Z,9.77
2023-03-06T23:23:04.875Z,9.43
2023-03-06T23:25:45.483Z,10.07
2023-03-06T23:28:13.776Z,10.17
2023-03-06T23:30:42.987Z,9.73
2023-03-06T23:33:11.318Z,9.30
2023-03-06T23:35:41.029Z,10.33
2023-03-06T23:38:09.279Z,9.40
2023-03-06T23:40:39.540Z,9.30
2023-03-06T23:43:07.830Z,10.13
2023-03-06T23:45:36.616Z,9.70
2023-03-06T23:48:07.818Z,9.67
2023-03-06T23:50:41.691Z,9.30
2023-03-06T23:53:09.959Z,10.17
2023-03-06T23:55:42.305Z,9.20
2023-03-06T23:58:10.673Z,9.37
